Main page
METAR-TAF:

METAR-TAF

Airports :

Bahrain International Airport

Bahrain, Bahrain

latitude: 26-16N, longitude: 050-39E, elevation: 2 m

Current weather observation

The report was made 22 minutes ago, at 21:30 UTC
Wind 6 kt from the South, varying between Southeast and South/Southwest
Temperature 29°C
Humidity 48%
Pressure 1005 hPa
Visibility 10 km or more
no clouds below 1500 m and no cumulonimbus

METAR: OBBI 092130Z 17006KT 140V200 CAVOK 29/17 Q1005 NOSIG

Time: 00:52 (21:52 UTC)

Forecast

The report was made 4 hours and 52 minutes ago, at 17:00 UTC
Forecast valid from 09 at 18 UTC to 11 at 00 UTC
Wind 15 kt from the Southeast
Visibility: 8000 m

TAF: OBBI 091700Z 0918/1100 14015KT 8000 NSC

Weather observations and forecasts of more than 4000 airports (METAR and TAF reports).

The available stations are represented by yellow and red dots on the map.

Hover mouse over dot to see the name of the station.

Then click to see weather observations and forecasts.

To change the map : click on the green buttons with a black cross to zoom in, on the green button with a dash to zoom out, or on the green arrows for adjacent maps.


METAR-TAF: